Integrity — WDF4881 — position and weather

sailwx.info

Track history (hours):
 
Tides and Currents Weather Stations Pressure Air Temp Water Temp Dewpoint Dewpoint Depression Visibility Wind Speed Wind Dir Waves Ship Positions

Integrity

Owner: Canal Barge Company, Inc., Belle Chasse, LA. More information available from US FCC via Universal Licensing System and Coast Guard Vessel Documentation Center.

Last reported at 2014-Oct-18 12:26 UTC. Time now 2014-Oct-26 07:53 UTC.
Position N 29°23' W 094°54'.

Length 19 m; draft 2.8 m.

Type: Towing. MMSI: 367456830.

Date/timePositionNaut miles runAvg speedWind from/ knotsBaromVisibWave heightAir tempDewpointWater temp
2014-Oct-18 12:26N 29°23' W 094°54'9 0.2
2014-Oct-16 13:32N 29°25' W 094°44'0 0.0
2014-Oct-16 12:33N 29°25' W 094°44'0 0.0
2014-Oct-16 11:34N 29°25' W 094°44'0 0.0
2014-Oct-16 05:22N 29°25' W 094°44'0 0.0
2014-Oct-16 04:08N 29°25' W 094°44'3 0.2
2014-Oct-15 15:24N 29°27' W 094°41'0 0.0
2014-Oct-15 14:03N 29°27' W 094°41'0 0.0
2014-Oct-15 13:16N 29°27' W 094°41'5 2.9
2014-Oct-15 11:27N 29°29' W 094°36'4 4.5
2014-Oct-15 10:31N 29°31' W 094°31'3 2.6
2014-Oct-15 09:21N 29°33' W 094°28'  
2014-Oct-10 20:13N 29°41' W 091°29'3 4.6
2014-Oct-10 19:29N 29°39' W 091°25'6 6.0
2014-Oct-10 18:34N 29°38' W 091°19'7 6.5
2014-Oct-10 17:34N 29°41' W 091°12'4 4.3
2014-Oct-10 16:34N 29°39' W 091°08'7 5.2
2014-Oct-10 15:12N 29°37' W 090°60'  
Track history (hours):
 
Tides and Currents Weather Stations Pressure Air Temp Water Temp Dewpoint Dewpoint Depression Visibility Wind Speed Wind Dir Waves Ship Positions

Integrity

Owner: Canal Barge Company, Inc., Belle Chasse, LA. More information available from US FCC via Universal Licensing System and Coast Guard Vessel Documentation Center.

Last reported at 2014-Oct-18 12:26 UTC. Time now 2014-Oct-26 07:53 UTC.
Position N 29°23' W 094°54'.

Length 19 m; draft 2.8 m.

Type: Towing. MMSI: 367456830.

Date/timePositionNaut miles runAvg speedWind from/ knotsBaromVisibWave heightAir tempDewpointWater temp
2014-Oct-18 12:26N 29°23' W 094°54'9 0.2
2014-Oct-16 13:32N 29°25' W 094°44'0 0.0
2014-Oct-16 12:33N 29°25' W 094°44'0 0.0
2014-Oct-16 11:34N 29°25' W 094°44'0 0.0
2014-Oct-16 05:22N 29°25' W 094°44'0 0.0
2014-Oct-16 04:08N 29°25' W 094°44'3 0.2
2014-Oct-15 15:24N 29°27' W 094°41'0 0.0
2014-Oct-15 14:03N 29°27' W 094°41'0 0.0
2014-Oct-15 13:16N 29°27' W 094°41'5 2.9
2014-Oct-15 11:27N 29°29' W 094°36'4 4.5
2014-Oct-15 10:31N 29°31' W 094°31'3 2.6
2014-Oct-15 09:21N 29°33' W 094°28'  
2014-Oct-10 20:13N 29°41' W 091°29'3 4.6
2014-Oct-10 19:29N 29°39' W 091°25'6 6.0
2014-Oct-10 18:34N 29°38' W 091°19'7 6.5
2014-Oct-10 17:34N 29°41' W 091°12'4 4.3
2014-Oct-10 16:34N 29°39' W 091°08'7 5.2
2014-Oct-10 15:12N 29°37' W 090°60'  

Dump ship's entire track history